sensor_id;sensor_type;location;lat;lon;timestamp;P1;durP1;ratioP1;P2;durP2;ratioP2
1460;SDS011;724;49.910;12.530;2023-10-08T00:00:22;9.50;;;9.00;;
1460;SDS011;724;49.910;12.530;2023-10-08T00:03:08;9.67;;;9.17;;
1460;SDS011;724;49.910;12.530;2023-10-08T00:05:35;10.00;;;9.50;;
1460;SDS011;724;49.910;12.530;2023-10-08T00:08:04;9.67;;;9.17;;
1460;SDS011;724;49.910;12.530;2023-10-08T00:10:34;9.90;;;9.40;;
1460;SDS011;724;49.910;12.530;2023-10-08T00:13:02;10.10;;;9.60;;
1460;SDS011;724;49.910;12.530;2023-10-08T00:15:32;9.80;;;9.30;;
1460;SDS011;724;49.910;12.530;2023-10-08T00:18:01;9.90;;;9.40;;
1460;SDS011;724;49.910;12.530;2023-10-08T00:20:29;9.70;;;9.20;;
1460;SDS011;724;49.910;12.530;2023-10-08T00:23:00;9.90;;;9.40;;
1460;SDS011;724;49.910;12.530;2023-10-08T00:25:29;9.80;;;9.30;;
1460;SDS011;724;49.910;12.530;2023-10-08T00:27:59;10.10;;;9.60;;
1460;SDS011;724;49.910;12.530;2023-10-08T00:30:27;10.10;;;9.60;;
1460;SDS011;724;49.910;12.530;2023-10-08T00:32:56;9.80;;;9.30;;
1460;SDS011;724;49.910;12.530;2023-10-08T00:35:23;10.20;;;9.70;;
1460;SDS011;724;49.910;12.530;2023-10-08T00:37:50;9.70;;;9.20;;
1460;SDS011;724;49.910;12.530;2023-10-08T00:40:19;9.60;;;9.10;;
1460;SDS011;724;49.910;12.530;2023-10-08T00:42:48;9.70;;;9.20;;
1460;SDS011;724;49.910;12.530;2023-10-08T00:45:21;9.87;;;9.37;;
1460;SDS011;724;49.910;12.530;2023-10-08T00:47:49;9.60;;;9.10;;
1460;SDS011;724;49.910;12.530;2023-10-08T00:50:20;9.97;;;9.47;;
1460;SDS011;724;49.910;12.530;2023-10-08T00:52:47;9.90;;;9.40;;
1460;SDS011;724;49.910;12.530;2023-10-08T00:55:24;10.20;;;9.70;;
1460;SDS011;724;49.910;12.530;2023-10-08T00:57:56;9.80;;;9.30;;
1460;SDS011;724;49.910;12.530;2023-10-08T01:00:32;10.07;;;9.57;;
1460;SDS011;724;49.910;12.530;2023-10-08T01:03:05;9.90;;;9.40;;
1460;SDS011;724;49.910;12.530;2023-10-08T01:05:40;9.80;;;9.30;;
1460;SDS011;724;49.910;12.530;2023-10-08T01:08:11;9.93;;;9.43;;
1460;SDS011;724;49.910;12.530;2023-10-08T01:10:43;10.10;;;9.60;;
1460;SDS011;724;49.910;12.530;2023-10-08T01:13:13;10.00;;;9.50;;
1460;SDS011;724;49.910;12.530;2023-10-08T01:15:44;9.90;;;9.40;;
1460;SDS011;724;49.910;12.530;2023-10-08T01:18:15;10.00;;;9.50;;
1460;SDS011;724;49.910;12.530;2023-10-08T01:20:54;10.30;;;9.80;;
1460;SDS011;724;49.910;12.530;2023-10-08T01:23:23;10.30;;;9.80;;
1460;SDS011;724;49.910;12.530;2023-10-08T01:25:52;10.30;;;9.80;;
1460;SDS011;724;49.910;12.530;2023-10-08T01:28:27;10.30;;;9.80;;
1460;SDS011;724;49.910;12.530;2023-10-08T01:30:54;10.60;;;10.00;;
1460;SDS011;724;49.910;12.530;2023-10-08T01:33:25;10.17;;;9.67;;
1460;SDS011;724;49.910;12.530;2023-10-08T01:35:53;10.90;;;10.30;;
1460;SDS011;724;49.910;12.530;2023-10-08T01:38:28;10.30;;;9.80;;
1460;SDS011;724;49.910;12.530;2023-10-08T01:40:55;10.70;;;10.10;;
1460;SDS011;724;49.910;12.530;2023-10-08T01:43:28;10.80;;;10.20;;
1460;SDS011;724;49.910;12.530;2023-10-08T01:45:55;10.80;;;10.20;;
1460;SDS011;724;49.910;12.530;2023-10-08T01:48:21;10.40;;;9.90;;
1460;SDS011;724;49.910;12.530;2023-10-08T01:50:53;10.60;;;10.00;;
1460;SDS011;724;49.910;12.530;2023-10-08T01:53:24;10.13;;;9.63;;
1460;SDS011;724;49.910;12.530;2023-10-08T01:55:53;10.10;;;9.60;;
1460;SDS011;724;49.910;12.530;2023-10-08T01:58:21;10.10;;;9.60;;
1460;SDS011;724;49.910;12.530;2023-10-08T02:00:48;10.00;;;9.50;;
1460;SDS011;724;49.910;12.530;2023-10-08T02:03:17;10.30;;;9.80;;
1460;SDS011;724;49.910;12.530;2023-10-08T02:05:44;10.30;;;9.80;;
1460;SDS011;724;49.910;12.530;2023-10-08T02:08:12;10.00;;;9.50;;
1460;SDS011;724;49.910;12.530;2023-10-08T02:10:40;10.20;;;9.70;;
1460;SDS011;724;49.910;12.530;2023-10-08T02:13:10;10.70;;;10.10;;
1460;SDS011;724;49.910;12.530;2023-10-08T02:15:40;10.70;;;10.10;;
1460;SDS011;724;49.910;12.530;2023-10-08T02:18:09;10.20;;;9.70;;
1460;SDS011;724;49.910;12.530;2023-10-08T02:20:38;10.60;;;10.00;;
1460;SDS011;724;49.910;12.530;2023-10-08T02:23:05;10.40;;;9.90;;
1460;SDS011;724;49.910;12.530;2023-10-08T02:25:32;10.20;;;9.70;;
1460;SDS011;724;49.910;12.530;2023-10-08T02:28:01;10.10;;;9.60;;
1460;SDS011;724;49.910;12.530;2023-10-08T02:30:30;10.60;;;10.00;;
1460;SDS011;724;49.910;12.530;2023-10-08T02:32:57;10.60;;;10.00;;
1460;SDS011;724;49.910;12.530;2023-10-08T02:35:24;10.13;;;9.63;;
1460;SDS011;724;49.910;12.530;2023-10-08T02:37:52;10.20;;;9.70;;
1460;SDS011;724;49.910;12.530;2023-10-08T02:40:19;10.20;;;9.70;;
1460;SDS011;724;49.910;12.530;2023-10-08T02:42:52;10.20;;;9.70;;
1460;SDS011;724;49.910;12.530;2023-10-08T02:45:24;10.23;;;9.73;;
1460;SDS011;724;49.910;12.530;2023-10-08T02:47:52;10.60;;;10.00;;
1460;SDS011;724;49.910;12.530;2023-10-08T02:50:19;10.30;;;9.80;;
1460;SDS011;724;49.910;12.530;2023-10-08T02:52:47;10.47;;;9.93;;
1460;SDS011;724;49.910;12.530;2023-10-08T02:55:15;10.57;;;10.00;;
1460;SDS011;724;49.910;12.530;2023-10-08T02:57:50;10.30;;;9.80;;
1460;SDS011;724;49.910;12.530;2023-10-08T03:00:17;10.20;;;9.70;;
1460;SDS011;724;49.910;12.530;2023-10-08T03:02:45;10.30;;;9.80;;
1460;SDS011;724;49.910;12.530;2023-10-08T03:05:13;10.40;;;9.90;;
1460;SDS011;724;49.910;12.530;2023-10-08T03:07:43;10.20;;;9.70;;
1460;SDS011;724;49.910;12.530;2023-10-08T03:10:09;11.00;;;10.40;;
1460;SDS011;724;49.910;12.530;2023-10-08T03:12:43;10.93;;;10.33;;
1460;SDS011;724;49.910;12.530;2023-10-08T03:15:12;10.53;;;9.97;;
1460;SDS011;724;49.910;12.530;2023-10-08T03:17:53;10.80;;;10.20;;
1460;SDS011;724;49.910;12.530;2023-10-08T03:20:23;11.00;;;10.40;;
1460;SDS011;724;49.910;12.530;2023-10-08T03:22:54;10.80;;;10.20;;
1460;SDS011;724;49.910;12.530;2023-10-08T03:25:22;10.80;;;10.20;;
1460;SDS011;724;49.910;12.530;2023-10-08T03:27:51;10.87;;;10.27;;
1460;SDS011;724;49.910;12.530;2023-10-08T03:30:19;10.80;;;10.20;;
1460;SDS011;724;49.910;12.530;2023-10-08T03:32:46;10.80;;;10.20;;
1460;SDS011;724;49.910;12.530;2023-10-08T03:35:19;10.80;;;10.20;;
1460;SDS011;724;49.910;12.530;2023-10-08T03:37:54;11.20;;;10.60;;
1460;SDS011;724;49.910;12.530;2023-10-08T03:40:41;11.10;;;10.50;;
1460;SDS011;724;49.910;12.530;2023-10-08T03:43:08;11.20;;;10.60;;
1460;SDS011;724;49.910;12.530;2023-10-08T03:45:56;10.90;;;10.30;;
1460;SDS011;724;49.910;12.530;2023-10-08T03:48:24;11.00;;;10.40;;
1460;SDS011;724;49.910;12.530;2023-10-08T03:50:55;11.00;;;10.40;;
1460;SDS011;724;49.910;12.530;2023-10-08T03:53:32;11.00;;;10.40;;
1460;SDS011;724;49.910;12.530;2023-10-08T03:56:07;10.90;;;10.30;;
1460;SDS011;724;49.910;12.530;2023-10-08T03:58:36;11.00;;;10.40;;
1460;SDS011;724;49.910;12.530;2023-10-08T04:01:11;10.80;;;10.20;;
1460;SDS011;724;49.910;12.530;2023-10-08T04:03:44;11.00;;;10.40;;
1460;SDS011;724;49.910;12.530;2023-10-08T04:06:23;11.32;;;10.73;;
1460;SDS011;724;49.910;12.530;2023-10-08T04:08:57;11.30;;;10.70;;
1460;SDS011;724;49.910;12.530;2023-10-08T04:11:37;11.03;;;10.43;;
1460;SDS011;724;49.910;12.530;2023-10-08T04:14:16;11.20;;;10.60;;
1460;SDS011;724;49.910;12.530;2023-10-08T04:16:44;11.07;;;10.47;;
1460;SDS011;724;49.910;12.530;2023-10-08T04:19:12;11.10;;;10.50;;
1460;SDS011;724;49.910;12.530;2023-10-08T04:21:43;10.97;;;10.37;;
1460;SDS011;724;49.910;12.530;2023-10-08T04:24:11;10.70;;;10.10;;
1460;SDS011;724;49.910;12.530;2023-10-08T04:26:39;10.90;;;10.30;;
1460;SDS011;724;49.910;12.530;2023-10-08T04:29:07;10.90;;;10.30;;
1460;SDS011;724;49.910;12.530;2023-10-08T04:31:34;11.40;;;10.80;;
1460;SDS011;724;49.910;12.530;2023-10-08T04:34:09;11.00;;;10.40;;
1460;SDS011;724;49.910;12.530;2023-10-08T04:36:40;10.90;;;10.30;;
1460;SDS011;724;49.910;12.530;2023-10-08T04:39:11;11.10;;;10.50;;
1460;SDS011;724;49.910;12.530;2023-10-08T04:41:41;11.00;;;10.40;;
1460;SDS011;724;49.910;12.530;2023-10-08T04:44:08;10.40;;;9.90;;
1460;SDS011;724;49.910;12.530;2023-10-08T04:46:40;11.10;;;10.50;;
1460;SDS011;724;49.910;12.530;2023-10-08T04:49:13;10.90;;;10.30;;
1460;SDS011;724;49.910;12.530;2023-10-08T04:51:54;10.90;;;10.30;;
1460;SDS011;724;49.910;12.530;2023-10-08T04:54:26;11.00;;;10.40;;
1460;SDS011;724;49.910;12.530;2023-10-08T04:56:56;11.10;;;10.50;;
1460;SDS011;724;49.910;12.530;2023-10-08T04:59:24;11.00;;;10.40;;
1460;SDS011;724;49.910;12.530;2023-10-08T05:01:57;11.00;;;10.40;;
1460;SDS011;724;49.910;12.530;2023-10-08T05:04:46;11.20;;;10.60;;
1460;SDS011;724;49.910;12.530;2023-10-08T05:07:32;10.77;;;10.17;;
1460;SDS011;724;49.910;12.530;2023-10-08T05:10:18;10.70;;;10.10;;
1460;SDS011;724;49.910;12.530;2023-10-08T05:13:09;11.70;;;11.10;;
1460;SDS011;724;49.910;12.530;2023-10-08T05:15:41;11.50;;;10.90;;
1460;SDS011;724;49.910;12.530;2023-10-08T05:18:26;11.40;;;10.80;;
1460;SDS011;724;49.910;12.530;2023-10-08T05:21:12;11.30;;;10.70;;
1460;SDS011;724;49.910;12.530;2023-10-08T05:23:50;11.10;;;10.50;;
1460;SDS011;724;49.910;12.530;2023-10-08T05:26:36;10.80;;;10.20;;
1460;SDS011;724;49.910;12.530;2023-10-08T05:29:10;10.10;;;9.60;;
1460;SDS011;724;49.910;12.530;2023-10-08T05:32:17;10.30;;;9.80;;
1460;SDS011;724;49.910;12.530;2023-10-08T05:35:03;10.32;;;9.82;;
1460;SDS011;724;49.910;12.530;2023-10-08T05:37:44;10.07;;;9.57;;
1460;SDS011;724;49.910;12.530;2023-10-08T05:40:17;10.18;;;9.68;;
1460;SDS011;724;49.910;12.530;2023-10-08T05:43:24;10.00;;;9.50;;
1460;SDS011;724;49.910;12.530;2023-10-08T05:46:13;10.10;;;9.60;;
1460;SDS011;724;49.910;12.530;2023-10-08T05:48:59;10.40;;;9.90;;
1460;SDS011;724;49.910;12.530;2023-10-08T05:51:28;10.30;;;9.80;;
1460;SDS011;724;49.910;12.530;2023-10-08T05:54:09;10.60;;;10.00;;
1460;SDS011;724;49.910;12.530;2023-10-08T05:56:50;10.63;;;10.02;;
1460;SDS011;724;49.910;12.530;2023-10-08T05:59:33;10.80;;;10.20;;
1460;SDS011;724;49.910;12.530;2023-10-08T06:02:17;10.10;;;9.60;;
1460;SDS011;724;49.910;12.530;2023-10-08T06:04:53;10.40;;;9.90;;
1460;SDS011;724;49.910;12.530;2023-10-08T06:07:35;10.90;;;10.30;;
1460;SDS011;724;49.910;12.530;2023-10-08T06:10:13;10.65;;;10.05;;
1460;SDS011;724;49.910;12.530;2023-10-08T06:13:07;10.40;;;9.90;;
1460;SDS011;724;49.910;12.530;2023-10-08T06:15:36;10.32;;;9.82;;
1460;SDS011;724;49.910;12.530;2023-10-08T06:18:09;9.90;;;9.40;;
1460;SDS011;724;49.910;12.530;2023-10-08T06:20:36;9.90;;;9.40;;
1460;SDS011;724;49.910;12.530;2023-10-08T06:23:05;9.90;;;9.40;;
1460;SDS011;724;49.910;12.530;2023-10-08T06:25:33;10.00;;;9.50;;
1460;SDS011;724;49.910;12.530;2023-10-08T06:28:09;9.60;;;9.10;;
1460;SDS011;724;49.910;12.530;2023-10-08T06:30:40;10.10;;;9.60;;
1460;SDS011;724;49.910;12.530;2023-10-08T06:33:07;10.07;;;9.57;;
1460;SDS011;724;49.910;12.530;2023-10-08T06:35:33;10.10;;;9.60;;
1460;SDS011;724;49.910;12.530;2023-10-08T06:38:01;9.90;;;9.40;;
1460;SDS011;724;49.910;12.530;2023-10-08T06:40:32;9.63;;;9.13;;
1460;SDS011;724;49.910;12.530;2023-10-08T06:43:09;10.10;;;9.60;;
1460;SDS011;724;49.910;12.530;2023-10-08T06:45:48;10.23;;;9.73;;
1460;SDS011;724;49.910;12.530;2023-10-08T06:48:18;9.70;;;9.20;;
1460;SDS011;724;49.910;12.530;2023-10-08T06:50:46;10.00;;;9.50;;
1460;SDS011;724;49.910;12.530;2023-10-08T06:53:14;9.83;;;9.33;;
1460;SDS011;724;49.910;12.530;2023-10-08T06:55:43;9.77;;;9.27;;
1460;SDS011;724;49.910;12.530;2023-10-08T06:58:13;9.80;;;9.30;;
1460;SDS011;724;49.910;12.530;2023-10-08T07:00:40;10.10;;;9.60;;
1460;SDS011;724;49.910;12.530;2023-10-08T07:03:13;9.80;;;9.30;;
1460;SDS011;724;49.910;12.530;2023-10-08T07:05:41;10.10;;;9.60;;
1460;SDS011;724;49.910;12.530;2023-10-08T07:08:10;10.10;;;9.60;;
1460;SDS011;724;49.910;12.530;2023-10-08T07:10:38;10.30;;;9.80;;
1460;SDS011;724;49.910;12.530;2023-10-08T07:13:07;9.98;;;9.48;;
1460;SDS011;724;49.910;12.530;2023-10-08T07:15:34;9.80;;;9.30;;
1460;SDS011;724;49.910;12.530;2023-10-08T07:18:04;9.83;;;9.33;;
1460;SDS011;724;49.910;12.530;2023-10-08T07:20:39;9.73;;;9.23;;
1460;SDS011;724;49.910;12.530;2023-10-08T07:23:10;9.87;;;9.37;;
1460;SDS011;724;49.910;12.530;2023-10-08T07:25:51;10.00;;;9.50;;
1460;SDS011;724;49.910;12.530;2023-10-08T07:28:22;10.03;;;9.53;;
1460;SDS011;724;49.910;12.530;2023-10-08T07:30:50;9.60;;;9.10;;
1460;SDS011;724;49.910;12.530;2023-10-08T07:33:17;9.80;;;9.30;;
1460;SDS011;724;49.910;12.530;2023-10-08T07:35:46;9.70;;;9.20;;
1460;SDS011;724;49.910;12.530;2023-10-08T07:38:19;9.87;;;9.37;;
1460;SDS011;724;49.910;12.530;2023-10-08T07:40:47;9.70;;;9.20;;
1460;SDS011;724;49.910;12.530;2023-10-08T07:43:15;9.80;;;9.30;;
1460;SDS011;724;49.910;12.530;2023-10-08T07:45:45;9.80;;;9.30;;
1460;SDS011;724;49.910;12.530;2023-10-08T07:48:12;9.60;;;9.10;;
1460;SDS011;724;49.910;12.530;2023-10-08T07:50:41;9.60;;;9.10;;
1460;SDS011;724;49.910;12.530;2023-10-08T07:53:10;9.20;;;8.70;;
1460;SDS011;724;49.910;12.530;2023-10-08T07:55:43;9.50;;;9.00;;
1460;SDS011;724;49.910;12.530;2023-10-08T07:58:11;9.60;;;9.10;;
1460;SDS011;724;49.910;12.530;2023-10-08T08:00:39;9.73;;;9.23;;
1460;SDS011;724;49.910;12.530;2023-10-08T08:03:06;9.87;;;9.37;;
1460;SDS011;724;49.910;12.530;2023-10-08T08:05:33;9.80;;;9.30;;
1460;SDS011;724;49.910;12.530;2023-10-08T08:08:03;9.70;;;9.20;;
1460;SDS011;724;49.910;12.530;2023-10-08T08:10:33;9.30;;;8.80;;
1460;SDS011;724;49.910;12.530;2023-10-08T08:13:02;9.50;;;9.00;;
1460;SDS011;724;49.910;12.530;2023-10-08T08:15:31;9.60;;;9.10;;
1460;SDS011;724;49.910;12.530;2023-10-08T08:17:59;9.40;;;8.90;;
1460;SDS011;724;49.910;12.530;2023-10-08T08:20:26;9.50;;;9.00;;
1460;SDS011;724;49.910;12.530;2023-10-08T08:23:04;9.43;;;8.93;;
1460;SDS011;724;49.910;12.530;2023-10-08T08:25:36;9.30;;;8.80;;
1460;SDS011;724;49.910;12.530;2023-10-08T08:28:11;9.80;;;9.30;;
1460;SDS011;724;49.910;12.530;2023-10-08T08:30:42;9.30;;;8.80;;
1460;SDS011;724;49.910;12.530;2023-10-08T08:33:11;9.50;;;9.00;;
1460;SDS011;724;49.910;12.530;2023-10-08T08:35:41;9.60;;;9.10;;
1460;SDS011;724;49.910;12.530;2023-10-08T08:38:10;9.60;;;9.10;;
1460;SDS011;724;49.910;12.530;2023-10-08T08:40:38;9.90;;;9.40;;
1460;SDS011;724;49.910;12.530;2023-10-08T08:43:06;9.50;;;9.00;;
1460;SDS011;724;49.910;12.530;2023-10-08T08:45:35;9.50;;;9.00;;
1460;SDS011;724;49.910;12.530;2023-10-08T08:48:05;9.57;;;9.07;;
1460;SDS011;724;49.910;12.530;2023-10-08T08:50:33;9.40;;;8.90;;
1460;SDS011;724;49.910;12.530;2023-10-08T08:53:00;9.85;;;9.35;;
1460;SDS011;724;49.910;12.530;2023-10-08T08:55:29;9.43;;;8.93;;
1460;SDS011;724;49.910;12.530;2023-10-08T08:58:02;9.10;;;8.60;;
1460;SDS011;724;49.910;12.530;2023-10-08T09:00:36;9.00;;;8.50;;
1460;SDS011;724;49.910;12.530;2023-10-08T09:03:06;9.07;;;8.57;;
1460;SDS011;724;49.910;12.530;2023-10-08T09:05:33;9.50;;;9.00;;
1460;SDS011;724;49.910;12.530;2023-10-08T09:08:02;9.50;;;9.00;;
1460;SDS011;724;49.910;12.530;2023-10-08T09:10:30;9.40;;;8.90;;
1460;SDS011;724;49.910;12.530;2023-10-08T09:13:04;9.20;;;8.70;;
1460;SDS011;724;49.910;12.530;2023-10-08T09:15:33;9.40;;;8.90;;
1460;SDS011;724;49.910;12.530;2023-10-08T09:18:01;9.30;;;8.80;;
1460;SDS011;724;49.910;12.530;2023-10-08T09:20:29;9.07;;;8.57;;
1460;SDS011;724;49.910;12.530;2023-10-08T09:23:06;10.00;;;9.50;;
1460;SDS011;724;49.910;12.530;2023-10-08T09:25:36;9.70;;;9.20;;
1460;SDS011;724;49.910;12.530;2023-10-08T09:28:05;9.60;;;9.10;;
1460;SDS011;724;49.910;12.530;2023-10-08T09:30:33;9.70;;;9.20;;
1460;SDS011;724;49.910;12.530;2023-10-08T09:33:03;9.73;;;9.23;;
1460;SDS011;724;49.910;12.530;2023-10-08T09:35:31;9.55;;;9.05;;
1460;SDS011;724;49.910;12.530;2023-10-08T09:37:58;9.60;;;9.10;;
1460;SDS011;724;49.910;12.530;2023-10-08T09:40:28;9.70;;;9.20;;
1460;SDS011;724;49.910;12.530;2023-10-08T09:42:55;9.70;;;9.20;;
1460;SDS011;724;49.910;12.530;2023-10-08T09:45:23;9.40;;;8.90;;
1460;SDS011;724;49.910;12.530;2023-10-08T09:47:52;9.45;;;8.95;;
1460;SDS011;724;49.910;12.530;2023-10-08T09:50:20;9.45;;;8.95;;
1460;SDS011;724;49.910;12.530;2023-10-08T09:52:55;9.40;;;8.90;;
1460;SDS011;724;49.910;12.530;2023-10-08T09:55:26;9.20;;;8.70;;
1460;SDS011;724;49.910;12.530;2023-10-08T09:57:53;9.27;;;8.77;;
1460;SDS011;724;49.910;12.530;2023-10-08T10:00:22;9.20;;;8.70;;
1460;SDS011;724;49.910;12.530;2023-10-08T10:02:56;9.30;;;8.80;;
1460;SDS011;724;49.910;12.530;2023-10-08T10:05:28;9.48;;;8.98;;
1460;SDS011;724;49.910;12.530;2023-10-08T10:07:56;9.70;;;9.20;;
1460;SDS011;724;49.910;12.530;2023-10-08T10:10:26;9.50;;;9.00;;
1460;SDS011;724;49.910;12.530;2023-10-08T10:12:58;9.50;;;9.00;;
1460;SDS011;724;49.910;12.530;2023-10-08T10:15:27;9.10;;;8.60;;
1460;SDS011;724;49.910;12.530;2023-10-08T10:17:58;9.40;;;8.90;;
1460;SDS011;724;49.910;12.530;2023-10-08T10:20:33;9.50;;;9.00;;
1460;SDS011;724;49.910;12.530;2023-10-08T10:23:02;9.50;;;9.00;;
1460;SDS011;724;49.910;12.530;2023-10-08T10:26:02;9.20;;;8.70;;
1460;SDS011;724;49.910;12.530;2023-10-08T10:28:30;9.40;;;8.90;;
1460;SDS011;724;49.910;12.530;2023-10-08T10:30:59;9.50;;;9.00;;
1460;SDS011;724;49.910;12.530;2023-10-08T10:33:29;9.20;;;8.70;;
1460;SDS011;724;49.910;12.530;2023-10-08T10:35:57;9.50;;;9.00;;
1460;SDS011;724;49.910;12.530;2023-10-08T10:38:26;9.80;;;9.30;;
1460;SDS011;724;49.910;12.530;2023-10-08T10:40:55;9.57;;;9.07;;
1460;SDS011;724;49.910;12.530;2023-10-08T10:43:23;9.98;;;9.48;;
1460;SDS011;724;49.910;12.530;2023-10-08T10:45:57;9.65;;;9.15;;
1460;SDS011;724;49.910;12.530;2023-10-08T10:48:55;9.70;;;9.20;;
1460;SDS011;724;49.910;12.530;2023-10-08T10:51:41;9.80;;;9.30;;
1460;SDS011;724;49.910;12.530;2023-10-08T10:54:07;9.50;;;9.00;;
1460;SDS011;724;49.910;12.530;2023-10-08T10:56:35;9.60;;;9.10;;
1460;SDS011;724;49.910;12.530;2023-10-08T10:59:05;9.80;;;9.30;;
1460;SDS011;724;49.910;12.530;2023-10-08T11:01:46;9.70;;;9.20;;
1460;SDS011;724;49.910;12.530;2023-10-08T11:04:17;9.80;;;9.30;;
1460;SDS011;724;49.910;12.530;2023-10-08T11:06:53;9.90;;;9.40;;
1460;SDS011;724;49.910;12.530;2023-10-08T11:09:23;9.60;;;9.10;;
1460;SDS011;724;49.910;12.530;2023-10-08T11:12:01;9.73;;;9.23;;
1460;SDS011;724;49.910;12.530;2023-10-08T11:14:36;9.65;;;9.15;;
1460;SDS011;724;49.910;12.530;2023-10-08T11:17:10;9.90;;;9.40;;
1460;SDS011;724;49.910;12.530;2023-10-08T11:19:38;10.00;;;9.50;;
1460;SDS011;724;49.910;12.530;2023-10-08T11:22:07;10.40;;;9.90;;
1460;SDS011;724;49.910;12.530;2023-10-08T11:24:41;10.00;;;9.50;;
1460;SDS011;724;49.910;12.530;2023-10-08T11:27:09;10.10;;;9.60;;
1460;SDS011;724;49.910;12.530;2023-10-08T11:29:41;9.90;;;9.40;;
1460;SDS011;724;49.910;12.530;2023-10-08T11:32:11;10.10;;;9.60;;
1460;SDS011;724;49.910;12.530;2023-10-08T11:34:40;10.13;;;9.63;;
1460;SDS011;724;49.910;12.530;2023-10-08T11:37:08;10.20;;;9.70;;
1460;SDS011;724;49.910;12.530;2023-10-08T11:39:46;10.00;;;9.50;;
1460;SDS011;724;49.910;12.530;2023-10-08T11:42:17;9.90;;;9.40;;
1460;SDS011;724;49.910;12.530;2023-10-08T11:45:09;10.17;;;9.67;;
1460;SDS011;724;49.910;12.530;2023-10-08T11:47:50;9.80;;;9.30;;
1460;SDS011;724;49.910;12.530;2023-10-08T11:50:22;10.07;;;9.57;;
1460;SDS011;724;49.910;12.530;2023-10-08T11:52:56;9.87;;;9.37;;
1460;SDS011;724;49.910;12.530;2023-10-08T11:55:27;9.80;;;9.30;;
1460;SDS011;724;49.910;12.530;2023-10-08T11:57:54;9.80;;;9.30;;
1460;SDS011;724;49.910;12.530;2023-10-08T12:00:22;9.60;;;9.10;;
1460;SDS011;724;49.910;12.530;2023-10-08T12:02:54;9.60;;;9.10;;
1460;SDS011;724;49.910;12.530;2023-10-08T12:05:21;9.90;;;9.40;;
1460;SDS011;724;49.910;12.530;2023-10-08T12:07:49;9.90;;;9.40;;
1460;SDS011;724;49.910;12.530;2023-10-08T12:10:18;9.90;;;9.40;;
1460;SDS011;724;49.910;12.530;2023-10-08T12:12:48;9.90;;;9.40;;
1460;SDS011;724;49.910;12.530;2023-10-08T12:15:18;10.00;;;9.50;;
1460;SDS011;724;49.910;12.530;2023-10-08T12:17:46;9.70;;;9.20;;
1460;SDS011;724;49.910;12.530;2023-10-08T12:20:35;9.82;;;9.32;;
1460;SDS011;724;49.910;12.530;2023-10-08T12:23:03;10.00;;;9.50;;
1460;SDS011;724;49.910;12.530;2023-10-08T12:25:31;10.10;;;9.60;;
1460;SDS011;724;49.910;12.530;2023-10-08T12:27:58;10.13;;;9.63;;
1460;SDS011;724;49.910;12.530;2023-10-08T12:30:29;9.90;;;9.40;;
1460;SDS011;724;49.910;12.530;2023-10-08T12:32:57;9.90;;;9.40;;
1460;SDS011;724;49.910;12.530;2023-10-08T12:35:25;10.20;;;9.70;;
1460;SDS011;724;49.910;12.530;2023-10-08T12:37:56;10.03;;;9.53;;
1460;SDS011;724;49.910;12.530;2023-10-08T12:40:23;10.00;;;9.50;;
1460;SDS011;724;49.910;12.530;2023-10-08T12:42:56;10.20;;;9.70;;
1460;SDS011;724;49.910;12.530;2023-10-08T12:45:24;10.20;;;9.70;;
1460;SDS011;724;49.910;12.530;2023-10-08T12:47:53;9.80;;;9.30;;
1460;SDS011;724;49.910;12.530;2023-10-08T12:50:20;9.90;;;9.40;;
1460;SDS011;724;49.910;12.530;2023-10-08T12:52:55;10.20;;;9.70;;
1460;SDS011;724;49.910;12.530;2023-10-08T12:55:22;9.70;;;9.20;;
1460;SDS011;724;49.910;12.530;2023-10-08T12:57:50;9.80;;;9.30;;
1460;SDS011;724;49.910;12.530;2023-10-08T13:00:21;9.90;;;9.40;;
1460;SDS011;724;49.910;12.530;2023-10-08T13:02:49;9.67;;;9.17;;
1460;SDS011;724;49.910;12.530;2023-10-08T13:05:19;9.70;;;9.20;;
1460;SDS011;724;49.910;12.530;2023-10-08T13:07:53;9.90;;;9.40;;
1460;SDS011;724;49.910;12.530;2023-10-08T13:10:22;9.90;;;9.40;;
1460;SDS011;724;49.910;12.530;2023-10-08T13:12:49;9.70;;;9.20;;
1460;SDS011;724;49.910;12.530;2023-10-08T13:15:17;10.10;;;9.60;;
1460;SDS011;724;49.910;12.530;2023-10-08T13:17:44;9.87;;;9.37;;
1460;SDS011;724;49.910;12.530;2023-10-08T13:20:13;9.87;;;9.37;;
1460;SDS011;724;49.910;12.530;2023-10-08T13:22:42;10.18;;;9.68;;
1460;SDS011;724;49.910;12.530;2023-10-08T13:25:13;10.10;;;9.60;;
1460;SDS011;724;49.910;12.530;2023-10-08T13:27:42;10.02;;;9.52;;
1460;SDS011;724;49.910;12.530;2023-10-08T13:30:09;10.10;;;9.60;;
1460;SDS011;724;49.910;12.530;2023-10-08T13:32:37;9.80;;;9.30;;
1460;SDS011;724;49.910;12.530;2023-10-08T13:35:05;9.80;;;9.30;;
1460;SDS011;724;49.910;12.530;2023-10-08T13:37:33;9.90;;;9.40;;
1460;SDS011;724;49.910;12.530;2023-10-08T13:40:01;9.80;;;9.30;;
1460;SDS011;724;49.910;12.530;2023-10-08T13:42:32;10.40;;;9.90;;
1460;SDS011;724;49.910;12.530;2023-10-08T13:45:00;10.20;;;9.70;;
1460;SDS011;724;49.910;12.530;2023-10-08T13:47:33;10.87;;;10.27;;
1460;SDS011;724;49.910;12.530;2023-10-08T13:50:05;10.20;;;9.70;;
1460;SDS011;724;49.910;12.530;2023-10-08T13:52:35;10.10;;;9.60;;
1460;SDS011;724;49.910;12.530;2023-10-08T13:55:04;10.30;;;9.80;;
1460;SDS011;724;49.910;12.530;2023-10-08T13:57:34;10.30;;;9.80;;
1460;SDS011;724;49.910;12.530;2023-10-08T14:00:00;10.00;;;9.50;;
1460;SDS011;724;49.910;12.530;2023-10-08T14:02:40;10.70;;;10.10;;
1460;SDS011;724;49.910;12.530;2023-10-08T14:05:07;10.10;;;9.60;;
1460;SDS011;724;49.910;12.530;2023-10-08T14:07:34;10.20;;;9.70;;
1460;SDS011;724;49.910;12.530;2023-10-08T14:10:03;10.20;;;9.70;;
1460;SDS011;724;49.910;12.530;2023-10-08T14:12:35;10.20;;;9.70;;
1460;SDS011;724;49.910;12.530;2023-10-08T14:15:03;10.00;;;9.50;;
1460;SDS011;724;49.910;12.530;2023-10-08T14:17:31;10.10;;;9.60;;
1460;SDS011;724;49.910;12.530;2023-10-08T14:20:08;9.70;;;9.20;;
1460;SDS011;724;49.910;12.530;2023-10-08T14:22:38;9.90;;;9.40;;
1460;SDS011;724;49.910;12.530;2023-10-08T14:25:07;9.80;;;9.30;;
1460;SDS011;724;49.910;12.530;2023-10-08T14:27:38;9.80;;;9.30;;
1460;SDS011;724;49.910;12.530;2023-10-08T14:30:06;9.50;;;9.00;;
1460;SDS011;724;49.910;12.530;2023-10-08T14:32:40;10.30;;;9.80;;
1460;SDS011;724;49.910;12.530;2023-10-08T14:35:13;9.67;;;9.17;;
1460;SDS011;724;49.910;12.530;2023-10-08T14:37:54;10.00;;;9.50;;
1460;SDS011;724;49.910;12.530;2023-10-08T14:40:39;10.10;;;9.60;;
1460;SDS011;724;49.910;12.530;2023-10-08T14:43:24;10.63;;;10.03;;
1460;SDS011;724;49.910;12.530;2023-10-08T14:45:54;10.00;;;9.50;;
1460;SDS011;724;49.910;12.530;2023-10-08T14:48:21;10.10;;;9.60;;
1460;SDS011;724;49.910;12.530;2023-10-08T14:50:48;9.70;;;9.20;;
1460;SDS011;724;49.910;12.530;2023-10-08T14:53:15;9.77;;;9.27;;
1460;SDS011;724;49.910;12.530;2023-10-08T14:55:42;9.70;;;9.20;;
1460;SDS011;724;49.910;12.530;2023-10-08T14:58:09;9.95;;;9.45;;
1460;SDS011;724;49.910;12.530;2023-10-08T15:00:37;10.40;;;9.90;;
1460;SDS011;724;49.910;12.530;2023-10-08T15:03:08;9.90;;;9.40;;
1460;SDS011;724;49.910;12.530;2023-10-08T15:05:36;10.20;;;9.70;;
1460;SDS011;724;49.910;12.530;2023-10-08T15:08:05;10.40;;;9.90;;
1460;SDS011;724;49.910;12.530;2023-10-08T15:10:34;10.20;;;9.70;;
1460;SDS011;724;49.910;12.530;2023-10-08T15:13:01;10.30;;;9.80;;
1460;SDS011;724;49.910;12.530;2023-10-08T15:15:28;10.10;;;9.60;;
1460;SDS011;724;49.910;12.530;2023-10-08T15:18:01;10.00;;;9.50;;
1460;SDS011;724;49.910;12.530;2023-10-08T15:20:28;10.05;;;9.55;;
1460;SDS011;724;49.910;12.530;2023-10-08T15:22:57;10.20;;;9.70;;
1460;SDS011;724;49.910;12.530;2023-10-08T15:25:24;9.95;;;9.45;;
1460;SDS011;724;49.910;12.530;2023-10-08T15:27:51;9.80;;;9.30;;
1460;SDS011;724;49.910;12.530;2023-10-08T15:30:19;10.00;;;9.50;;